sensor_id;sensor_type;location;lat;lon;timestamp;pressure;altitude;pressure_sealevel;temperature;humidity
76011;BME280;64701;43.536;1.478;2023-07-29T00:00:45;99276.53;;;23.12;70.25
76011;BME280;64701;43.536;1.478;2023-07-29T00:03:10;99274.94;;;23.06;71.96
76011;BME280;64701;43.536;1.478;2023-07-29T00:05:36;99269.31;;;23.03;70.98
76011;BME280;64701;43.536;1.478;2023-07-29T00:08:02;99280.38;;;23.01;71.42
76011;BME280;64701;43.536;1.478;2023-07-29T00:10:27;99273.94;;;22.97;72.92
76011;BME280;64701;43.536;1.478;2023-07-29T00:12:52;99272.31;;;22.96;72.27
76011;BME280;64701;43.536;1.478;2023-07-29T00:15:18;99274.47;;;22.94;74.76
76011;BME280;64701;43.536;1.478;2023-07-29T00:17:43;99264.78;;;22.88;75.75
76011;BME280;64701;43.536;1.478;2023-07-29T00:20:08;99258.34;;;22.84;76.71
76011;BME280;64701;43.536;1.478;2023-07-29T00:22:33;99267.00;;;22.81;77.82
76011;BME280;64701;43.536;1.478;2023-07-29T00:24:59;99260.00;;;22.80;76.29
76011;BME280;64701;43.536;1.478;2023-07-29T00:27:24;99251.06;;;22.79;76.10
76011;BME280;64701;43.536;1.478;2023-07-29T00:29:50;99254.59;;;22.80;75.98
76011;BME280;64701;43.536;1.478;2023-07-29T00:32:15;99247.31;;;22.81;75.68
76011;BME280;64701;43.536;1.478;2023-07-29T00:34:40;99246.50;;;22.80;75.98
76011;BME280;64701;43.536;1.478;2023-07-29T00:37:06;99248.38;;;22.79;75.66
76011;BME280;64701;43.536;1.478;2023-07-29T00:39:31;99247.03;;;22.77;75.64
76011;BME280;64701;43.536;1.478;2023-07-29T00:42:00;99245.97;;;22.73;77.20
76011;BME280;64701;43.536;1.478;2023-07-29T00:44:25;99240.59;;;22.73;76.24
76011;BME280;64701;43.536;1.478;2023-07-29T00:46:52;99243.81;;;22.70;75.94
76011;BME280;64701;43.536;1.478;2023-07-29T00:49:17;99243.28;;;22.68;75.85
76011;BME280;64701;43.536;1.478;2023-07-29T00:51:42;99238.41;;;22.65;76.95
76011;BME280;64701;43.536;1.478;2023-07-29T00:54:08;99236.28;;;22.62;76.56
76011;BME280;64701;43.536;1.478;2023-07-29T00:56:33;99243.56;;;22.61;76.55
76011;BME280;64701;43.536;1.478;2023-07-29T00:58:58;99230.34;;;22.60;76.22
76011;BME280;64701;43.536;1.478;2023-07-29T01:01:26;99236.81;;;22.59;76.00
76011;BME280;64701;43.536;1.478;2023-07-29T01:03:52;99240.91;;;22.56;76.33
76011;BME280;64701;43.536;1.478;2023-07-29T01:08:57;99232.84;;;22.51;75.89
76011;BME280;64701;43.536;1.478;2023-07-29T01:11:28;99237.41;;;22.51;75.96
76011;BME280;64701;43.536;1.478;2023-07-29T01:14:04;99231.47;;;22.49;76.03
76011;BME280;64701;43.536;1.478;2023-07-29T01:16:31;99229.34;;;22.46;76.86
76011;BME280;64701;43.536;1.478;2023-07-29T01:18:59;99227.72;;;22.45;76.99
76011;BME280;64701;43.536;1.478;2023-07-29T01:21:29;99225.31;;;22.43;77.17
76011;BME280;64701;43.536;1.478;2023-07-29T01:23:58;99233.66;;;22.42;77.51
76011;BME280;64701;43.536;1.478;2023-07-29T01:26:24;99228.03;;;22.38;77.72
76011;BME280;64701;43.536;1.478;2023-07-29T01:28:49;99232.59;;;22.37;77.32
76011;BME280;64701;43.536;1.478;2023-07-29T01:31:23;99226.66;;;22.35;77.32
76011;BME280;64701;43.536;1.478;2023-07-29T01:33:57;99231.56;;;22.33;76.98
76011;BME280;64701;43.536;1.478;2023-07-29T01:36:23;99233.16;;;22.29;78.97
76011;BME280;64701;43.536;1.478;2023-07-29T01:38:51;99236.44;;;22.26;78.47
76011;BME280;64701;43.536;1.478;2023-07-29T01:41:16;99233.19;;;22.24;77.77
76011;BME280;64701;43.536;1.478;2023-07-29T01:43:42;99238.06;;;22.22;77.99
76011;BME280;64701;43.536;1.478;2023-07-29T01:46:11;99234.84;;;22.20;77.57
76011;BME280;64701;43.536;1.478;2023-07-29T01:48:37;99235.91;;;22.19;77.46
76011;BME280;64701;43.536;1.478;2023-07-29T01:51:03;99239.69;;;22.18;77.75
76011;BME280;64701;43.536;1.478;2023-07-29T01:53:28;99244.81;;;22.15;79.08
76011;BME280;64701;43.536;1.478;2023-07-29T01:55:53;99237.56;;;22.10;79.66
76011;BME280;64701;43.536;1.478;2023-07-29T01:58:19;99232.44;;;22.09;79.57
76011;BME280;64701;43.536;1.478;2023-07-29T02:00:44;99228.94;;;22.08;78.55
76011;BME280;64701;43.536;1.478;2023-07-29T02:03:09;99217.09;;;22.04;79.65
76011;BME280;64701;43.536;1.478;2023-07-29T02:05:34;99218.44;;;22.02;79.73
76011;BME280;64701;43.536;1.478;2023-07-29T02:08:00;99218.19;;;21.98;80.30
76011;BME280;64701;43.536;1.478;2023-07-29T02:10:25;99212.75;;;21.93;78.99
76011;BME280;64701;43.536;1.478;2023-07-29T02:12:50;99208.97;;;21.89;78.59
76011;BME280;64701;43.536;1.478;2023-07-29T02:15:16;99211.13;;;21.87;78.07
76011;BME280;64701;43.536;1.478;2023-07-29T02:17:41;99208.75;;;21.80;79.41
76011;BME280;64701;43.536;1.478;2023-07-29T02:20:07;99210.09;;;21.73;79.20
76011;BME280;64701;43.536;1.478;2023-07-29T02:22:32;99207.94;;;21.65;78.84
76011;BME280;64701;43.536;1.478;2023-07-29T02:24:57;99210.41;;;21.56;79.81
76011;BME280;64701;43.536;1.478;2023-07-29T02:27:23;99210.66;;;21.49;81.29
76011;BME280;64701;43.536;1.478;2023-07-29T02:29:51;99202.59;;;21.44;80.23
76011;BME280;64701;43.536;1.478;2023-07-29T02:32:17;99202.03;;;21.42;79.84
76011;BME280;64701;43.536;1.478;2023-07-29T02:34:42;99199.59;;;21.41;79.92
76011;BME280;64701;43.536;1.478;2023-07-29T02:37:07;99192.34;;;21.41;79.98
76011;BME280;64701;43.536;1.478;2023-07-29T02:39:33;99182.13;;;21.43;78.93
76011;BME280;64701;43.536;1.478;2023-07-29T02:41:58;99191.81;;;21.44;80.13
76011;BME280;64701;43.536;1.478;2023-07-29T02:44:23;99185.88;;;21.42;80.68
76011;BME280;64701;43.536;1.478;2023-07-29T02:46:49;99186.94;;;21.41;80.33
76011;BME280;64701;43.536;1.478;2023-07-29T02:49:14;99189.09;;;21.39;80.67
76011;BME280;64701;43.536;1.478;2023-07-29T02:51:39;99183.72;;;21.39;80.38
76011;BME280;64701;43.536;1.478;2023-07-29T02:54:04;99186.41;;;21.39;81.30
76011;BME280;64701;43.536;1.478;2023-07-29T02:56:30;99178.06;;;21.36;82.01
76011;BME280;64701;43.536;1.478;2023-07-29T02:58:58;99182.38;;;21.32;81.45
76011;BME280;64701;43.536;1.478;2023-07-29T03:01:23;99179.16;;;21.30;81.48
76011;BME280;64701;43.536;1.478;2023-07-29T03:03:50;99177.78;;;21.27;80.62
76011;BME280;64701;43.536;1.478;2023-07-29T03:06:17;99171.31;;;21.28;80.29
76011;BME280;64701;43.536;1.478;2023-07-29T03:08:42;99171.31;;;21.28;80.71
76011;BME280;64701;43.536;1.478;2023-07-29T03:11:12;99161.38;;;21.29;80.42
76011;BME280;64701;43.536;1.478;2023-07-29T03:13:38;99161.63;;;21.27;80.76
76011;BME280;64701;43.536;1.478;2023-07-29T03:16:07;99170.50;;;21.28;80.53
76011;BME280;64701;43.536;1.478;2023-07-29T03:18:32;99176.72;;;21.28;80.47
76011;BME280;64701;43.536;1.478;2023-07-29T03:20:57;99177.53;;;21.29;80.37
76011;BME280;64701;43.536;1.478;2023-07-29T03:23:23;99176.72;;;21.28;80.65
76011;BME280;64701;43.536;1.478;2023-07-29T03:25:49;99167.81;;;21.28;80.40
76011;BME280;64701;43.536;1.478;2023-07-29T03:28:16;99166.50;;;21.25;81.95
76011;BME280;64701;43.536;1.478;2023-07-29T03:30:41;99164.06;;;21.24;81.14
76011;BME280;64701;43.536;1.478;2023-07-29T03:33:07;99170.81;;;21.21;81.54
76011;BME280;64701;43.536;1.478;2023-07-29T03:35:32;99167.00;;;21.22;81.24
76011;BME280;64701;43.536;1.478;2023-07-29T03:37:57;99166.22;;;21.22;81.07
76011;BME280;64701;43.536;1.478;2023-07-29T03:40:23;99165.69;;;21.20;80.78
76011;BME280;64701;43.536;1.478;2023-07-29T03:42:48;99172.16;;;21.18;81.43
76011;BME280;64701;43.536;1.478;2023-07-29T03:45:13;99170.78;;;21.16;82.25
76011;BME280;64701;43.536;1.478;2023-07-29T03:47:38;99175.06;;;21.12;82.78
76011;BME280;64701;43.536;1.478;2023-07-29T03:50:04;99172.38;;;21.07;82.40
76011;BME280;64701;43.536;1.478;2023-07-29T03:52:29;99164.81;;;21.04;82.63
76011;BME280;64701;43.536;1.478;2023-07-29T03:54:55;99164.31;;;21.02;82.26
76011;BME280;64701;43.536;1.478;2023-07-29T03:57:21;99165.13;;;21.02;82.43
76011;BME280;64701;43.536;1.478;2023-07-29T03:59:46;99168.63;;;21.03;82.50
76011;BME280;64701;43.536;1.478;2023-07-29T04:02:11;99164.81;;;21.04;82.55
76011;BME280;64701;43.536;1.478;2023-07-29T04:04:36;99160.00;;;21.01;84.65
76011;BME280;64701;43.536;1.478;2023-07-29T04:07:02;99160.00;;;21.01;82.75
76011;BME280;64701;43.536;1.478;2023-07-29T04:09:27;99161.63;;;21.02;82.84
76011;BME280;64701;43.536;1.478;2023-07-29T04:11:53;99165.63;;;20.99;84.84
76011;BME280;64701;43.536;1.478;2023-07-29T04:14:18;99169.94;;;20.95;83.99
76011;BME280;64701;43.536;1.478;2023-07-29T04:16:43;99179.09;;;20.94;84.33
76011;BME280;64701;43.536;1.478;2023-07-29T04:19:09;99176.13;;;20.91;84.80
76011;BME280;64701;43.536;1.478;2023-07-29T04:21:34;99178.28;;;20.89;84.46
76011;BME280;64701;43.536;1.478;2023-07-29T04:23:59;99179.91;;;20.90;84.38
76011;BME280;64701;43.536;1.478;2023-07-29T04:26:24;99180.41;;;20.87;85.07
76011;BME280;64701;43.536;1.478;2023-07-29T04:28:50;99178.78;;;20.86;84.77
76011;BME280;64701;43.536;1.478;2023-07-29T04:31:15;99182.59;;;20.85;84.08
76011;BME280;64701;43.536;1.478;2023-07-29T04:33:40;99179.91;;;20.85;83.74
76011;BME280;64701;43.536;1.478;2023-07-29T04:36:05;99172.63;;;20.85;84.54
76011;BME280;64701;43.536;1.478;2023-07-29T04:38:32;99180.16;;;20.83;84.92
76011;BME280;64701;43.536;1.478;2023-07-29T04:40:58;99179.88;;;20.79;85.44
76011;BME280;64701;43.536;1.478;2023-07-29T04:43:26;99182.56;;;20.79;85.63
76011;BME280;64701;43.536;1.478;2023-07-29T04:45:51;99181.50;;;20.81;85.61
76011;BME280;64701;43.536;1.478;2023-07-29T04:48:17;99183.66;;;20.78;86.13
76011;BME280;64701;43.536;1.478;2023-07-29T04:50:42;99174.78;;;20.78;86.77
76011;BME280;64701;43.536;1.478;2023-07-29T04:53:07;99176.66;;;20.77;85.15
76011;BME280;64701;43.536;1.478;2023-07-29T04:55:32;99173.69;;;20.79;85.46
76011;BME280;64701;43.536;1.478;2023-07-29T04:57:58;99172.09;;;20.78;86.42
76011;BME280;64701;43.536;1.478;2023-07-29T05:00:25;99178.28;;;20.78;85.98
76011;BME280;64701;43.536;1.478;2023-07-29T05:02:50;99177.16;;;20.79;84.94
76011;BME280;64701;43.536;1.478;2023-07-29T05:05:16;99185.25;;;20.79;85.80
76011;BME280;64701;43.536;1.478;2023-07-29T05:07:41;99171.53;;;20.81;85.41
76011;BME280;64701;43.536;1.478;2023-07-29T05:10:07;99176.66;;;20.83;86.12
76011;BME280;64701;43.536;1.478;2023-07-29T05:12:32;99176.09;;;20.86;85.95
76011;BME280;64701;43.536;1.478;2023-07-29T05:14:57;99179.34;;;20.88;86.76
76011;BME280;64701;43.536;1.478;2023-07-29T05:17:23;99177.22;;;20.90;86.24
76011;BME280;64701;43.536;1.478;2023-07-29T05:19:48;99180.16;;;20.93;85.81
76011;BME280;64701;43.536;1.478;2023-07-29T05:22:14;99182.34;;;20.96;85.69
76011;BME280;64701;43.536;1.478;2023-07-29T05:24:39;99178.28;;;20.99;86.02
76011;BME280;64701;43.536;1.478;2023-07-29T05:27:04;99184.22;;;21.01;86.47
76011;BME280;64701;43.536;1.478;2023-07-29T05:29:30;99187.16;;;21.04;86.19
76011;BME280;64701;43.536;1.478;2023-07-29T05:31:55;99184.22;;;21.06;85.88
76011;BME280;64701;43.536;1.478;2023-07-29T05:34:22;99181.53;;;21.11;86.85
76011;BME280;64701;43.536;1.478;2023-07-29T05:36:47;99178.56;;;21.12;86.79
76011;BME280;64701;43.536;1.478;2023-07-29T05:39:12;99181.28;;;21.17;86.17
76011;BME280;64701;43.536;1.478;2023-07-29T05:41:37;99186.41;;;21.19;86.20
76011;BME280;64701;43.536;1.478;2023-07-29T05:44:03;99190.19;;;21.23;85.60
76011;BME280;64701;43.536;1.478;2023-07-29T05:46:28;99183.16;;;21.27;85.62
76011;BME280;64701;43.536;1.478;2023-07-29T05:48:53;99186.41;;;21.29;86.69
76011;BME280;64701;43.536;1.478;2023-07-29T05:51:19;99183.19;;;21.32;86.60
76011;BME280;64701;43.536;1.478;2023-07-29T05:53:44;99178.31;;;21.34;86.57
76011;BME280;64701;43.536;1.478;2023-07-29T05:56:09;99180.50;;;21.37;85.63
76011;BME280;64701;43.536;1.478;2023-07-29T05:58:35;99176.19;;;21.41;85.81
76011;BME280;64701;43.536;1.478;2023-07-29T06:01:00;99182.63;;;21.45;85.93
76011;BME280;64701;43.536;1.478;2023-07-29T06:03:26;99178.34;;;21.49;86.81
76011;BME280;64701;43.536;1.478;2023-07-29T06:05:51;99180.47;;;21.52;86.08
76011;BME280;64701;43.536;1.478;2023-07-29T06:08:17;99182.63;;;21.55;86.10
76011;BME280;64701;43.536;1.478;2023-07-29T06:10:42;99181.81;;;21.60;85.74
76011;BME280;64701;43.536;1.478;2023-07-29T06:13:07;99181.56;;;21.62;87.30
76011;BME280;64701;43.536;1.478;2023-07-29T06:15:33;99184.75;;;21.64;88.07
76011;BME280;64701;43.536;1.478;2023-07-29T06:17:58;99188.00;;;21.66;87.86
76011;BME280;64701;43.536;1.478;2023-07-29T06:20:23;99187.47;;;21.69;87.39
76011;BME280;64701;43.536;1.478;2023-07-29T06:22:49;99186.38;;;21.75;86.73
76011;BME280;64701;43.536;1.478;2023-07-29T06:25:14;99190.16;;;21.79;87.13
76011;BME280;64701;43.536;1.478;2023-07-29T06:27:39;99195.53;;;21.84;86.62
76011;BME280;64701;43.536;1.478;2023-07-29T06:30:05;99197.94;;;21.90;87.70
76011;BME280;64701;43.536;1.478;2023-07-29T06:32:31;99194.69;;;21.93;87.48
76011;BME280;64701;43.536;1.478;2023-07-29T06:34:56;99198.19;;;21.99;86.83
76011;BME280;64701;43.536;1.478;2023-07-29T06:37:21;99196.59;;;22.03;86.64
76011;BME280;64701;43.536;1.478;2023-07-29T06:39:47;99192.81;;;22.09;87.17
76011;BME280;64701;43.536;1.478;2023-07-29T06:42:12;99201.94;;;22.13;87.04
76011;BME280;64701;43.536;1.478;2023-07-29T06:44:38;99198.41;;;22.18;86.68
76011;BME280;64701;43.536;1.478;2023-07-29T06:47:03;99203.78;;;22.23;86.17
76011;BME280;64701;43.536;1.478;2023-07-29T06:49:28;99199.22;;;22.28;86.86
76011;BME280;64701;43.536;1.478;2023-07-29T06:51:54;99211.88;;;22.33;87.32
76011;BME280;64701;43.536;1.478;2023-07-29T06:54:19;99213.19;;;22.35;87.38
76011;BME280;64701;43.536;1.478;2023-07-29T06:56:48;99211.56;;;22.39;87.63
76011;BME280;64701;43.536;1.478;2023-07-29T06:59:14;99205.88;;;22.41;88.03
76011;BME280;64701;43.536;1.478;2023-07-29T07:01:39;99206.16;;;22.45;88.53
76011;BME280;64701;43.536;1.478;2023-07-29T07:04:04;99217.75;;;22.45;87.84
76011;BME280;64701;43.536;1.478;2023-07-29T07:06:29;99209.66;;;22.45;89.31
76011;BME280;64701;43.536;1.478;2023-07-29T07:08:55;99209.94;;;22.44;90.05
76011;BME280;64701;43.536;1.478;2023-07-29T07:13:45;99214.47;;;22.53;88.36
76011;BME280;64701;43.536;1.478;2023-07-29T07:16:10;99214.97;;;22.60;88.07
76011;BME280;64701;43.536;1.478;2023-07-29T07:18:36;99213.63;;;22.63;88.09
76011;BME280;64701;43.536;1.478;2023-07-29T07:21:01;99216.28;;;22.68;87.93
76011;BME280;64701;43.536;1.478;2023-07-29T07:23:26;99220.59;;;22.74;88.46
76011;BME280;64701;43.536;1.478;2023-07-29T07:25:52;99216.81;;;22.75;89.36
76011;BME280;64701;43.536;1.478;2023-07-29T07:28:17;99212.47;;;22.79;89.83
76011;BME280;64701;43.536;1.478;2023-07-29T07:30:42;99213.53;;;22.83;87.78
76011;BME280;64701;43.536;1.478;2023-07-29T07:33:07;99212.97;;;22.86;87.80
76011;BME280;64701;43.536;1.478;2023-07-29T07:35:33;99211.28;;;22.95;87.26
76011;BME280;64701;43.536;1.478;2023-07-29T07:37:58;99219.09;;;23.02;87.01
76011;BME280;64701;43.536;1.478;2023-07-29T07:40:24;99218.22;;;23.06;85.75
76011;BME280;64701;43.536;1.478;2023-07-29T07:42:49;99217.69;;;23.09;86.38
76011;BME280;64701;43.536;1.478;2023-07-29T07:45:15;99223.59;;;23.16;86.03
76011;BME280;64701;43.536;1.478;2023-07-29T07:47:40;99224.09;;;23.24;85.86
76011;BME280;64701;43.536;1.478;2023-07-29T07:50:05;99224.03;;;23.29;84.63
76011;BME280;64701;43.536;1.478;2023-07-29T07:52:31;99227.78;;;23.33;85.19
76011;BME280;64701;43.536;1.478;2023-07-29T07:54:56;99223.41;;;23.37;84.34
76011;BME280;64701;43.536;1.478;2023-07-29T07:57:21;99229.63;;;23.37;84.73
76011;BME280;64701;43.536;1.478;2023-07-29T07:59:47;99223.09;;;23.43;84.96
76011;BME280;64701;43.536;1.478;2023-07-29T08:02:12;99224.41;;;23.51;83.58
76011;BME280;64701;43.536;1.478;2023-07-29T08:04:38;99218.69;;;23.57;82.96
76011;BME280;64701;43.536;1.478;2023-07-29T08:07:03;99221.06;;;23.64;82.30
76011;BME280;64701;43.536;1.478;2023-07-29T08:09:28;99225.34;;;23.70;82.69
76011;BME280;64701;43.536;1.478;2023-07-29T08:11:54;99226.31;;;23.79;81.62
76011;BME280;64701;43.536;1.478;2023-07-29T08:14:19;99224.63;;;23.88;81.72
76011;BME280;64701;43.536;1.478;2023-07-29T08:16:44;99230.47;;;23.95;81.23
76011;BME280;64701;43.536;1.478;2023-07-29T08:19:09;99231.25;;;24.01;80.19
76011;BME280;64701;43.536;1.478;2023-07-29T08:21:35;99228.72;;;24.10;80.43
76011;BME280;64701;43.536;1.478;2023-07-29T08:24:00;99232.69;;;24.17;80.25
76011;BME280;64701;43.536;1.478;2023-07-29T08:26:25;99228.34;;;24.21;79.03
76011;BME280;64701;43.536;1.478;2023-07-29T08:28:51;99222.59;;;24.28;79.45
76011;BME280;64701;43.536;1.478;2023-07-29T08:31:16;99221.44;;;24.34;78.56
76011;BME280;64701;43.536;1.478;2023-07-29T08:33:41;99227.59;;;24.39;77.91
76011;BME280;64701;43.536;1.478;2023-07-29T08:36:06;99225.56;;;24.50;78.49
76011;BME280;64701;43.536;1.478;2023-07-29T08:38:32;99224.19;;;24.53;74.96
76011;BME280;64701;43.536;1.478;2023-07-29T08:43:24;99218.91;;;24.61;73.54
76011;BME280;64701;43.536;1.478;2023-07-29T08:45:53;99218.88;;;24.66;73.99
76011;BME280;64701;43.536;1.478;2023-07-29T08:48:19;99218.22;;;24.74;73.49
76011;BME280;64701;43.536;1.478;2023-07-29T08:50:48;99221.38;;;24.81;74.04
76011;BME280;64701;43.536;1.478;2023-07-29T08:53:14;99215.59;;;24.88;72.82
76011;BME280;64701;43.536;1.478;2023-07-29T08:55:39;99211.47;;;24.96;72.00
76011;BME280;64701;43.536;1.478;2023-07-29T08:58:04;99216.72;;;25.06;74.77
76011;BME280;64701;43.536;1.478;2023-07-29T09:00:30;99220.44;;;25.10;72.03
76011;BME280;64701;43.536;1.478;2023-07-29T09:02:55;99225.78;;;25.15;71.63
76011;BME280;64701;43.536;1.478;2023-07-29T09:05:22;99220.59;;;25.18;70.63
76011;BME280;64701;43.536;1.478;2023-07-29T09:07:48;99221.84;;;25.26;71.58
76011;BME280;64701;43.536;1.478;2023-07-29T09:10:14;99217.44;;;25.30;69.84
76011;BME280;64701;43.536;1.478;2023-07-29T09:12:40;99205.41;;;25.36;70.13
76011;BME280;64701;43.536;1.478;2023-07-29T09:15:06;99204.69;;;25.44;70.30
76011;BME280;64701;43.536;1.478;2023-07-29T09:17:32;99201.63;;;25.51;69.39
76011;BME280;64701;43.536;1.478;2023-07-29T09:19:58;99208.81;;;25.60;68.99
76011;BME280;64701;43.536;1.478;2023-07-29T09:22:23;99210.81;;;25.69;68.65
76011;BME280;64701;43.536;1.478;2023-07-29T09:24:49;99213.16;;;25.75;66.74
76011;BME280;64701;43.536;1.478;2023-07-29T09:27:32;99206.25;;;25.83;68.35
76011;BME280;64701;43.536;1.478;2023-07-29T09:30:03;99208.56;;;25.89;68.69
76011;BME280;64701;43.536;1.478;2023-07-29T09:32:30;99211.38;;;25.98;70.37
76011;BME280;64701;43.536;1.478;2023-07-29T09:34:55;99208.59;;;26.03;67.78
76011;BME280;64701;43.536;1.478;2023-07-29T09:37:21;99210.81;;;26.15;68.41
76011;BME280;64701;43.536;1.478;2023-07-29T09:39:46;99208.22;;;26.23;68.46
76011;BME280;64701;43.536;1.478;2023-07-29T09:42:16;99204.28;;;26.29;66.71
76011;BME280;64701;43.536;1.478;2023-07-29T09:44:42;99200.38;;;26.35;67.77
76011;BME280;64701;43.536;1.478;2023-07-29T09:47:07;99201.88;;;26.41;67.11
76011;BME280;64701;43.536;1.478;2023-07-29T09:49:34;99208.78;;;26.48;67.28
76011;BME280;64701;43.536;1.478;2023-07-29T09:52:00;99214.00;;;26.58;67.20
76011;BME280;64701;43.536;1.478;2023-07-29T09:54:29;99222.66;;;26.60;65.75
76011;BME280;64701;43.536;1.478;2023-07-29T09:56:54;99220.63;;;26.65;65.40
76011;BME280;64701;43.536;1.478;2023-07-29T09:59:20;99214.00;;;26.71;64.89
76011;BME280;64701;43.536;1.478;2023-07-29T10:01:48;99210.47;;;26.71;63.67
76011;BME280;64701;43.536;1.478;2023-07-29T10:04:13;99216.91;;;26.75;64.20
76011;BME280;64701;43.536;1.478;2023-07-29T10:06:38;99216.69;;;26.85;65.37
76011;BME280;64701;43.536;1.478;2023-07-29T10:09:04;99218.72;;;26.93;66.31
76011;BME280;64701;43.536;1.478;2023-07-29T10:11:30;99221.78;;;27.00;66.15
76011;BME280;64701;43.536;1.478;2023-07-29T10:13:56;99216.75;;;27.07;65.72
76011;BME280;64701;43.536;1.478;2023-07-29T10:16:22;99218.22;;;27.13;63.51
76011;BME280;64701;43.536;1.478;2023-07-29T10:18:48;99212.19;;;27.16;62.08
76011;BME280;64701;43.536;1.478;2023-07-29T10:21:14;99217.31;;;27.18;59.34
76011;BME280;64701;43.536;1.478;2023-07-29T10:23:42;99227.16;;;27.28;61.25
76011;BME280;64701;43.536;1.478;2023-07-29T10:26:09;99224.09;;;27.29;60.60
76011;BME280;64701;43.536;1.478;2023-07-29T10:28:35;99225.28;;;27.37;61.13
76011;BME280;64701;43.536;1.478;2023-07-29T10:31:04;99218.97;;;27.50;62.25
76011;BME280;64701;43.536;1.478;2023-07-29T10:33:29;99229.63;;;27.60;60.83
76011;BME280;64701;43.536;1.478;2023-07-29T10:35:56;99226.00;;;27.65;60.90
76011;BME280;64701;43.536;1.478;2023-07-29T10:38:22;99215.59;;;27.67;58.32
76011;BME280;64701;43.536;1.478;2023-07-29T10:40:50;99212.44;;;27.73;59.71
76011;BME280;64701;43.536;1.478;2023-07-29T10:43:23;99210.81;;;27.72;58.49
76011;BME280;64701;43.536;1.478;2023-07-29T10:45:49;99201.91;;;27.80;58.02
76011;BME280;64701;43.536;1.478;2023-07-29T10:53:42;99208.94;;;28.12;59.36
76011;BME280;64701;43.536;1.478;2023-07-29T10:56:07;99208.19;;;28.20;58.04
76011;BME280;64701;43.536;1.478;2023-07-29T10:58:32;99211.25;;;28.27;57.14
76011;BME280;64701;43.536;1.478;2023-07-29T11:00:57;99210.31;;;28.32;55.01
76011;BME280;64701;43.536;1.478;2023-07-29T11:03:23;99199.94;;;28.51;57.74
76011;BME280;64701;43.536;1.478;2023-07-29T11:05:50;99207.19;;;28.64;56.80
76011;BME280;64701;43.536;1.478;2023-07-29T11:08:19;99208.81;;;28.74;55.76
76011;BME280;64701;43.536;1.478;2023-07-29T11:10:46;99209.97;;;28.81;54.09
76011;BME280;64701;43.536;1.478;2023-07-29T11:13:22;99205.66;;;28.89;56.04
76011;BME280;64701;43.536;1.478;2023-07-29T11:15:47;99201.97;;;28.94;54.43
76011;BME280;64701;43.536;1.478;2023-07-29T11:18:14;99205.66;;;29.06;54.74
76011;BME280;64701;43.536;1.478;2023-07-29T11:20:40;99205.47;;;29.20;55.19
76011;BME280;64701;43.536;1.478;2023-07-29T11:23:06;99202.59;;;29.25;53.39
76011;BME280;64701;43.536;1.478;2023-07-29T11:25:31;99199.25;;;29.37;52.77
76011;BME280;64701;43.536;1.478;2023-07-29T11:27:59;99193.31;;;29.43;52.70
76011;BME280;64701;43.536;1.478;2023-07-29T11:30:27;99195.50;;;29.50;51.68
76011;BME280;64701;43.536;1.478;2023-07-29T11:32:54;99186.81;;;29.56;50.92
76011;BME280;64701;43.536;1.478;2023-07-29T11:35:21;99192.59;;;29.63;52.89
76011;BME280;64701;43.536;1.478;2023-07-29T11:37:48;99190.78;;;29.76;54.20
76011;BME280;64701;43.536;1.478;2023-07-29T11:40:19;99181.91;;;29.88;53.36
76011;BME280;64701;43.536;1.478;2023-07-29T11:42:46;99189.78;;;29.98;53.37
76011;BME280;64701;43.536;1.478;2023-07-29T11:45:12;99178.16;;;30.10;52.15
76011;BME280;64701;43.536;1.478;2023-07-29T11:47:38;99180.03;;;30.26;53.88
76011;BME280;64701;43.536;1.478;2023-07-29T11:50:04;99179.34;;;30.29;52.11
76011;BME280;64701;43.536;1.478;2023-07-29T11:52:31;99180.28;;;30.33;49.39
76011;BME280;64701;43.536;1.478;2023-07-29T11:55:00;99178.16;;;30.39;51.71
76011;BME280;64701;43.536;1.478;2023-07-29T11:57:26;99165.28;;;30.48;49.80
76011;BME280;64701;43.536;1.478;2023-07-29T11:59:51;99176.16;;;30.57;52.33
76011;BME280;64701;43.536;1.478;2023-07-29T12:02:19;99180.91;;;30.68;51.09
76011;BME280;64701;43.536;1.478;2023-07-29T12:04:46;99182.44;;;30.78;49.39
76011;BME280;64701;43.536;1.478;2023-07-29T12:07:16;99186.84;;;30.91;51.98
76011;BME280;64701;43.536;1.478;2023-07-29T12:09:42;99180.69;;;30.94;47.84
76011;BME280;64701;43.536;1.478;2023-07-29T12:12:11;99185.91;;;31.08;50.39
76011;BME280;64701;43.536;1.478;2023-07-29T12:14:37;99173.31;;;31.15;48.94
76011;BME280;64701;43.536;1.478;2023-07-29T12:17:04;99178.09;;;31.18;49.60
76011;BME280;64701;43.536;1.478;2023-07-29T12:19:33;99180.16;;;31.21;49.30
76011;BME280;64701;43.536;1.478;2023-07-29T12:21:59;99177.22;;;31.27;49.25
76011;BME280;64701;43.536;1.478;2023-07-29T12:24:24;99177.22;;;31.27;47.91
76011;BME280;64701;43.536;1.478;2023-07-29T12:26:50;99168.91;;;31.35;48.52
76011;BME280;64701;43.536;1.478;2023-07-29T12:29:18;99159.50;;;31.45;48.85
76011;BME280;64701;43.536;1.478;2023-07-29T12:31:46;99163.88;;;31.58;49.22
76011;BME280;64701;43.536;1.478;2023-07-29T12:34:21;99151.22;;;31.66;47.38
76011;BME280;64701;43.536;1.478;2023-07-29T12:36:50;99154.53;;;31.59;45.54
76011;BME280;64701;43.536;1.478;2023-07-29T12:39:19;99157.25;;;31.59;47.38
76011;BME280;64701;43.536;1.478;2023-07-29T12:41:45;99158.06;;;31.59;48.51
76011;BME280;64701;43.536;1.478;2023-07-29T12:44:10;99163.56;;;31.72;47.67
76011;BME280;64701;43.536;1.478;2023-07-29T12:46:35;99153.09;;;31.86;47.83
76011;BME280;64701;43.536;1.478;2023-07-29T12:49:01;99154.34;;;32.00;50.18
76011;BME280;64701;43.536;1.478;2023-07-29T12:51:26;99149.34;;;32.15;46.92
76011;BME280;64701;43.536;1.478;2023-07-29T12:53:53;99154.34;;;32.25;47.51
76011;BME280;64701;43.536;1.478;2023-07-29T12:56:18;99150.81;;;32.36;46.33
76011;BME280;64701;43.536;1.478;2023-07-29T12:58:44;99148.28;;;32.43;45.53
76011;BME280;64701;43.536;1.478;2023-07-29T13:01:09;99144.88;;;32.47;45.09
76011;BME280;64701;43.536;1.478;2023-07-29T13:03:36;99148.06;;;32.36;45.63
76011;BME280;64701;43.536;1.478;2023-07-29T13:06:02;99143.94;;;32.42;45.98